createdAt,value
2018-12-04T00:00:39.693Z,3.33
2018-12-04T00:02:44.076Z,6.50
2018-12-04T00:04:48.262Z,5.67
2018-12-04T00:06:52.411Z,5.43
2018-12-04T00:08:56.872Z,9.90
2018-12-04T00:11:01.202Z,8.00
2018-12-04T00:13:05.490Z,19.50
2018-12-04T00:15:09.743Z,6.03
2018-12-04T00:17:13.944Z,10.33
2018-12-04T00:19:18.286Z,14.47
2018-12-04T00:21:22.374Z,9.10
2018-12-04T00:23:26.623Z,7.67
2018-12-04T00:25:30.891Z,12.97
2018-12-04T00:27:35.234Z,9.40
2018-12-04T00:29:39.480Z,15.27
2018-12-04T00:31:43.761Z,3.50
2018-12-04T00:33:48.070Z,6.00
2018-12-04T00:35:52.271Z,15.13
2018-12-04T00:37:56.757Z,13.53
2018-12-04T00:40:01.013Z,6.43
2018-12-04T00:42:05.373Z,5.17
2018-12-04T00:44:09.858Z,13.73
2018-12-04T00:46:14.115Z,3.83
2018-12-04T00:48:18.358Z,14.43
2018-12-04T00:50:22.782Z,6.07
2018-12-04T00:52:27.205Z,5.57
2018-12-04T00:54:31.394Z,8.53
2018-12-04T00:56:35.648Z,8.53
2018-12-04T00:58:39.950Z,12.97
2018-12-04T01:00:44.021Z,3.33
2018-12-04T01:02:48.492Z,6.73
2018-12-04T01:04:52.848Z,4.63
2018-12-04T01:06:57.215Z,7.93
2018-12-04T01:09:01.351Z,11.87
2018-12-04T01:11:05.715Z,3.80
2018-12-04T01:13:10.148Z,7.20
2018-12-04T01:15:15.175Z,9.77
2018-12-04T01:17:19.525Z,7.00
2018-12-04T01:19:23.686Z,2.80
2018-12-04T01:21:28.147Z,13.63
2018-12-04T01:23:32.410Z,10.67
2018-12-04T01:25:37.016Z,10.77
2018-12-04T01:27:41.314Z,8.77
2018-12-04T01:29:45.645Z,11.73
2018-12-04T01:31:50.086Z,8.47
2018-12-04T01:33:54.418Z,5.93
2018-12-04T01:35:58.629Z,11.30
2018-12-04T01:38:02.965Z,10.07
2018-12-04T01:40:07.540Z,9.47
2018-12-04T01:42:11.898Z,11.27
2018-12-04T01:44:15.996Z,8.03
2018-12-04T01:46:20.286Z,5.47
2018-12-04T01:48:24.721Z,9.43
2018-12-04T01:50:28.947Z,14.23
2018-12-04T01:52:33.463Z,9.60
2018-12-04T01:54:37.729Z,8.07
2018-12-04T01:56:42.047Z,6.57
2018-12-04T01:58:46.418Z,6.07
2018-12-04T02:00:50.605Z,7.00
2018-12-04T02:02:54.976Z,5.77
2018-12-04T02:04:59.313Z,8.17
2018-12-04T02:07:03.517Z,7.80
2018-12-04T02:09:08.182Z,9.93
2018-12-04T02:11:12.357Z,14.30
2018-12-04T02:13:16.601Z,12.50
2018-12-04T02:15:20.977Z,7.50
2018-12-04T02:17:25.338Z,7.30
2018-12-04T02:19:29.565Z,9.60
2018-12-04T02:21:34.023Z,8.13
2018-12-04T02:23:38.393Z,12.30
2018-12-04T02:25:42.683Z,16.17
2018-12-04T02:27:46.891Z,13.80
2018-12-04T02:29:51.084Z,12.63
2018-12-04T02:31:55.394Z,6.37
2018-12-04T02:33:59.665Z,7.60
2018-12-04T02:36:03.945Z,8.63
2018-12-04T02:38:08.135Z,8.30
2018-12-04T02:40:12.380Z,8.93
2018-12-04T02:42:20.858Z,5.17
2018-12-04T02:44:25.222Z,6.33
2018-12-04T02:46:29.414Z,10.00
2018-12-04T02:48:33.715Z,11.63
2018-12-04T02:50:38.047Z,8.33
2018-12-04T02:52:42.379Z,10.30
2018-12-04T02:54:46.642Z,16.33
2018-12-04T02:56:51.074Z,9.40
2018-12-04T02:58:55.508Z,7.67
2018-12-04T03:00:59.823Z,10.20
2018-12-04T03:03:04.049Z,11.50
2018-12-04T03:05:08.580Z,7.07
2018-12-04T03:07:12.983Z,15.50
2018-12-04T03:09:17.201Z,13.50
2018-12-04T03:11:21.484Z,10.80
2018-12-04T03:13:25.785Z,6.73
2018-12-04T03:15:30.136Z,8.70
2018-12-04T03:17:34.247Z,5.80
2018-12-04T03:19:38.450Z,10.53
2018-12-04T03:21:42.980Z,12.40
2018-12-04T03:23:47.266Z,9.40
2018-12-04T03:25:51.675Z,11.90
2018-12-04T03:27:56.145Z,6.60
2018-12-04T03:30:00.404Z,9.30
2018-12-04T03:32:04.553Z,5.57
2018-12-04T03:34:08.873Z,8.87
2018-12-04T03:36:13.203Z,17.73
2018-12-04T03:38:17.559Z,9.50
2018-12-04T03:40:21.817Z,10.07
2018-12-04T03:42:26.153Z,17.50
2018-12-04T03:44:30.440Z,10.63
2018-12-04T03:46:34.865Z,9.77
2018-12-04T03:48:39.032Z,6.20
2018-12-04T03:50:43.494Z,10.80
2018-12-04T03:52:47.894Z,12.03
2018-12-04T03:54:52.618Z,18.80
2018-12-04T03:56:56.933Z,15.40
2018-12-04T03:59:01.261Z,4.33
2018-12-04T04:01:05.391Z,8.93
2018-12-04T04:03:09.553Z,8.57
2018-12-04T04:05:16.312Z,7.60
2018-12-04T04:07:20.674Z,7.60
2018-12-04T04:09:24.988Z,11.67
2018-12-04T04:11:29.299Z,10.20
2018-12-04T04:13:33.575Z,10.07
2018-12-04T04:15:38.480Z,8.60
2018-12-04T04:17:42.958Z,9.90
2018-12-04T04:19:47.137Z,4.47
2018-12-04T04:21:51.474Z,12.93
2018-12-04T04:23:55.827Z,13.97
2018-12-04T04:26:00.302Z,7.97
2018-12-04T04:28:04.737Z,4.43
2018-12-04T04:30:08.944Z,8.87
2018-12-04T04:32:13.467Z,7.30
2018-12-04T04:34:17.813Z,5.80
2018-12-04T04:36:22.178Z,8.70
2018-12-04T04:38:26.838Z,7.03
2018-12-04T04:40:31.352Z,12.87
2018-12-04T04:42:35.861Z,13.10
2018-12-04T04:44:40.164Z,16.27
2018-12-04T04:46:44.373Z,12.43
2018-12-04T04:48:48.507Z,11.30
2018-12-04T04:50:52.772Z,13.43
2018-12-04T04:52:57.329Z,8.20
2018-12-04T04:55:01.648Z,15.50
2018-12-04T04:57:05.843Z,11.93
2018-12-04T04:59:10.298Z,6.87
2018-12-04T05:01:14.504Z,8.00
2018-12-04T05:03:18.794Z,9.90
2018-12-04T05:05:23.214Z,6.63
2018-12-04T05:07:27.447Z,9.43
2018-12-04T05:09:31.734Z,12.27
2018-12-04T05:12:05.434Z,8.70
2018-12-04T05:14:09.572Z,12.80
2018-12-04T05:16:13.886Z,12.63
2018-12-04T05:18:18.392Z,12.30
2018-12-04T05:20:22.800Z,8.07
2018-12-04T05:22:27.327Z,8.17
2018-12-04T05:24:31.612Z,13.90
2018-12-04T05:26:36.280Z,11.00
2018-12-04T05:28:40.800Z,8.23
2018-12-04T05:30:45.182Z,10.07
2018-12-04T05:32:49.415Z,8.50
2018-12-04T05:34:53.655Z,10.50
2018-12-04T05:36:57.832Z,17.67
2018-12-04T05:39:02.612Z,16.07
2018-12-04T05:41:06.739Z,7.20
2018-12-04T05:43:10.954Z,13.00
2018-12-04T05:45:15.305Z,19.33
2018-12-04T05:47:19.431Z,11.43
2018-12-04T05:49:23.649Z,10.67
2018-12-04T05:51:27.952Z,11.60
2018-12-04T05:53:36.776Z,15.37
2018-12-04T05:55:40.985Z,12.70
2018-12-04T05:57:55.526Z,10.17
2018-12-04T05:59:59.849Z,11.80
2018-12-04T06:02:04.205Z,7.53
2018-12-04T06:04:08.449Z,6.73
2018-12-04T06:06:12.936Z,12.53
2018-12-04T06:08:18.875Z,13.40
2018-12-04T06:10:23.046Z,16.57
2018-12-04T06:12:27.454Z,15.80
2018-12-04T06:14:31.885Z,8.20
2018-12-04T06:16:36.222Z,18.33
2018-12-04T06:18:40.630Z,9.07
2018-12-04T06:20:44.828Z,9.27
2018-12-04T06:22:49.044Z,15.67
2018-12-04T06:24:53.253Z,9.13
2018-12-04T06:26:57.782Z,10.67
2018-12-04T06:29:02.058Z,14.27
2018-12-04T06:31:06.433Z,10.03
2018-12-04T06:33:10.716Z,12.80
2018-12-04T06:35:15.029Z,16.10
2018-12-04T06:37:19.372Z,14.87
2018-12-04T06:39:23.686Z,11.53
2018-12-04T06:41:27.864Z,8.00
2018-12-04T06:43:32.297Z,8.07
2018-12-04T06:45:36.623Z,7.73
2018-12-04T06:47:41.337Z,6.90
2018-12-04T06:49:45.783Z,8.07
2018-12-04T06:51:50.086Z,12.50
2018-12-04T06:53:54.245Z,13.20
2018-12-04T06:55:58.596Z,13.67
2018-12-04T06:58:03.115Z,6.23
2018-12-04T07:00:08.060Z,9.13
2018-12-04T07:02:12.389Z,8.13
2018-12-04T07:04:16.634Z,9.23
2018-12-04T07:06:21.008Z,8.13
2018-12-04T07:08:25.439Z,11.47
2018-12-04T07:10:29.681Z,11.60
2018-12-04T07:12:34.032Z,14.93
2018-12-04T07:14:38.224Z,7.07
2018-12-04T07:16:42.455Z,23.03
2018-12-04T07:18:47.204Z,8.27
2018-12-04T07:20:52.876Z,10.00
2018-12-04T07:22:57.211Z,9.00
2018-12-04T07:25:01.567Z,3.77
2018-12-04T07:27:05.840Z,11.57
2018-12-04T07:29:10.204Z,8.70
2018-12-04T07:31:14.613Z,10.77
2018-12-04T07:33:18.882Z,11.00
2018-12-04T07:35:23.235Z,9.87
2018-12-04T07:37:27.638Z,11.60
2018-12-04T07:39:31.972Z,9.57
2018-12-04T07:41:36.497Z,13.67
2018-12-04T07:43:40.613Z,15.60
2018-12-04T07:45:44.789Z,10.90
2018-12-04T07:47:49.137Z,14.20
2018-12-04T07:49:53.842Z,7.47
2018-12-04T07:51:58.149Z,12.27
2018-12-04T07:54:02.582Z,24.33
2018-12-04T07:56:06.890Z,13.03
2018-12-04T07:58:11.205Z,18.70
2018-12-04T08:00:15.564Z,12.70
2018-12-04T08:02:19.765Z,18.43
2018-12-04T08:04:24.261Z,15.47
2018-12-04T08:06:28.691Z,16.13
2018-12-04T08:08:34.016Z,14.43
2018-12-04T08:10:45.125Z,10.83
2018-12-04T08:12:49.496Z,14.60
2018-12-04T08:14:53.924Z,18.73
2018-12-04T08:16:58.313Z,16.37
2018-12-04T08:19:02.647Z,25.60
2018-12-04T08:21:07.038Z,25.90
2018-12-04T08:23:11.585Z,22.67
2018-12-04T08:25:16.108Z,23.50
2018-12-04T08:27:24.185Z,22.93
2018-12-04T08:29:28.430Z,16.53
2018-12-04T08:31:32.737Z,13.47
2018-12-04T08:33:37.072Z,23.97
2018-12-04T08:35:41.342Z,16.33
2018-12-04T08:37:45.584Z,20.10
2018-12-04T08:39:50.022Z,19.73
2018-12-04T08:41:54.381Z,12.60
2018-12-04T08:43:58.713Z,6.17
2018-12-04T08:46:03.154Z,10.07
2018-12-04T08:48:07.356Z,12.43
2018-12-04T08:50:11.487Z,8.70
2018-12-04T08:52:15.765Z,9.33
2018-12-04T08:54:19.988Z,12.00
2018-12-04T08:56:24.404Z,9.93
2018-12-04T08:58:28.589Z,14.80
2018-12-04T09:00:32.938Z,14.33
2018-12-04T09:02:37.348Z,6.67
2018-12-04T09:04:41.988Z,10.27
2018-12-04T09:06:46.265Z,20.50
2018-12-04T09:08:50.714Z,16.00
2018-12-04T09:10:55.038Z,10.43
2018-12-04T09:12:59.443Z,8.10
2018-12-04T09:15:04.081Z,9.57
2018-12-04T09:17:08.385Z,12.47
2018-12-04T09:19:12.912Z,14.80
2018-12-04T09:21:17.242Z,12.30
2018-12-04T09:23:21.801Z,10.10
2018-12-04T09:25:26.208Z,8.03
2018-12-04T09:27:30.493Z,7.97
2018-12-04T09:29:34.801Z,7.03
2018-12-04T09:31:39.082Z,11.67
2018-12-04T09:33:44.193Z,12.53
2018-12-04T09:35:48.639Z,10.17
2018-12-04T09:37:53.072Z,13.90
2018-12-04T09:39:57.494Z,9.27
2018-12-04T09:42:01.892Z,13.93
2018-12-04T09:44:06.162Z,9.20
2018-12-04T09:46:10.440Z,12.73
2018-12-04T09:48:14.693Z,12.60
2018-12-04T09:50:19.071Z,7.70
2018-12-04T09:52:23.371Z,9.13
2018-12-04T09:54:28.261Z,10.87
2018-12-04T09:56:32.635Z,15.27
2018-12-04T09:58:37.011Z,12.67
2018-12-04T10:00:41.492Z,8.63
2018-12-04T10:02:47.846Z,7.60
2018-12-04T10:04:52.181Z,9.10
2018-12-04T10:06:56.580Z,11.63
2018-12-04T10:09:00.854Z,13.97
2018-12-04T10:11:05.392Z,10.43
2018-12-04T10:13:09.806Z,11.73
2018-12-04T10:15:14.111Z,7.23
2018-12-04T10:17:18.562Z,13.73
2018-12-04T10:19:23.304Z,8.90
2018-12-04T10:21:27.720Z,7.03
2018-12-04T10:23:31.895Z,7.20
2018-12-04T10:25:38.120Z,11.13
2018-12-04T10:27:42.450Z,8.90
2018-12-04T10:29:46.667Z,13.17
2018-12-04T10:31:55.927Z,8.77
2018-12-04T10:33:57.536Z,14.40
2018-12-04T10:36:01.861Z,12.80
2018-12-04T10:38:06.190Z,13.60
2018-12-04T10:40:10.550Z,12.07
2018-12-04T10:42:14.712Z,13.60
2018-12-04T10:44:19.016Z,10.27
2018-12-04T10:46:23.310Z,16.43
2018-12-04T10:48:27.648Z,11.57
2018-12-04T10:50:31.958Z,13.60
2018-12-04T10:52:36.327Z,10.30
2018-12-04T10:54:40.948Z,12.93
2018-12-04T10:56:45.202Z,10.33
2018-12-04T10:58:49.431Z,13.93
2018-12-04T11:00:55.653Z,13.47
2018-12-04T11:03:05.045Z,12.87
2018-12-04T11:05:09.286Z,8.73
2018-12-04T11:07:13.941Z,8.40
2018-12-04T11:09:18.402Z,20.27
2018-12-04T11:11:22.659Z,11.17
2018-12-04T11:13:27.114Z,12.50
2018-12-04T11:15:31.529Z,21.63
2018-12-04T11:17:35.711Z,15.73
2018-12-04T11:19:40.155Z,10.00
2018-12-04T11:21:44.445Z,12.23
2018-12-04T11:23:48.865Z,8.97
2018-12-04T11:25:53.310Z,21.30
2018-12-04T11:27:57.460Z,16.93
2018-12-04T11:30:01.736Z,18.20
2018-12-04T11:32:06.005Z,14.87
2018-12-04T11:34:10.232Z,12.47
2018-12-04T11:36:14.645Z,8.60
2018-12-04T11:38:19.169Z,10.40
2018-12-04T11:40:23.550Z,12.33
2018-12-04T11:42:28.180Z,14.30
2018-12-04T11:44:32.684Z,11.80
2018-12-04T11:46:37.138Z,6.27
2018-12-04T11:48:41.451Z,10.87
2018-12-04T11:50:45.887Z,17.57
2018-12-04T11:52:49.997Z,9.27
2018-12-04T11:54:54.202Z,6.20
2018-12-04T11:56:58.593Z,12.30
2018-12-04T11:59:03.681Z,9.60
2018-12-04T12:01:08.171Z,8.20
2018-12-04T12:03:12.507Z,10.63
2018-12-04T12:05:16.907Z,10.70
2018-12-04T12:07:21.009Z,11.60
2018-12-04T12:09:25.131Z,14.23
2018-12-04T12:11:29.447Z,20.90
2018-12-04T12:13:33.861Z,7.90
2018-12-04T12:15:38.131Z,9.30
2018-12-04T12:17:42.392Z,9.40
2018-12-04T12:19:46.722Z,10.93
2018-12-04T12:21:51.020Z,11.80
2018-12-04T12:23:55.335Z,11.23
2018-12-04T12:25:59.655Z,11.63
2018-12-04T12:28:04.451Z,14.10
2018-12-04T12:30:10.519Z,10.23
2018-12-04T12:32:14.942Z,7.97
2018-12-04T12:34:23.460Z,16.97
2018-12-04T12:36:25.538Z,7.93
2018-12-04T12:38:29.939Z,11.60
2018-12-04T12:40:34.224Z,8.70
2018-12-04T12:42:38.655Z,11.13
2018-12-04T12:44:43.088Z,16.53
2018-12-04T12:46:47.608Z,13.63
2018-12-04T12:48:51.928Z,15.70
2018-12-04T12:50:56.192Z,10.37
2018-12-04T12:53:00.469Z,8.67
2018-12-04T12:55:05.334Z,13.23
2018-12-04T12:57:09.570Z,21.00
2018-12-04T12:59:13.819Z,20.80
2018-12-04T13:01:18.517Z,20.50
2018-12-04T13:03:22.915Z,19.03
2018-12-04T13:05:27.363Z,11.60
2018-12-04T13:07:31.547Z,10.40
2018-12-04T13:09:35.994Z,15.90
2018-12-04T13:11:40.343Z,20.43
2018-12-04T13:13:44.623Z,48.73
2018-12-04T13:15:48.834Z,37.83
2018-12-04T13:17:53.249Z,32.47
2018-12-04T13:19:57.517Z,19.33
2018-12-04T13:22:01.788Z,13.30
2018-12-04T13:24:06.096Z,11.30
2018-12-04T13:26:10.376Z,7.67
2018-12-04T13:28:14.728Z,10.50
2018-12-04T13:30:19.192Z,7.30
2018-12-04T13:32:23.636Z,9.80
2018-12-04T13:34:28.552Z,4.00
2018-12-04T13:36:32.888Z,7.00
2018-12-04T13:38:37.191Z,8.03
2018-12-04T13:40:41.499Z,12.60
2018-12-04T13:42:45.859Z,12.23
2018-12-04T13:44:50.270Z,7.03
2018-12-04T13:46:54.676Z,15.53
2018-12-04T13:48:58.887Z,12.27
2018-12-04T13:51:03.403Z,7.23
2018-12-04T13:53:07.795Z,7.90
2018-12-04T13:55:12.269Z,6.40
2018-12-04T13:57:16.565Z,8.60
2018-12-04T13:59:20.831Z,14.90
2018-12-04T14:01:25.043Z,9.10
2018-12-04T14:03:29.387Z,14.17
2018-12-04T14:05:33.920Z,9.50
2018-12-04T14:07:38.126Z,11.93
2018-12-04T14:09:42.644Z,15.80
2018-12-04T14:11:47.081Z,16.33
2018-12-04T14:13:51.289Z,21.93
2018-12-04T14:15:56.897Z,49.73
2018-12-04T14:18:01.476Z,22.30
2018-12-04T14:20:07.511Z,35.00
2018-12-04T14:22:12.969Z,75.57
2018-12-04T14:24:17.971Z,33.37
2018-12-04T14:26:22.224Z,28.73
2018-12-04T14:28:26.756Z,37.33
2018-12-04T14:30:31.126Z,28.63
2018-12-04T14:32:35.706Z,19.07
2018-12-04T14:34:40.158Z,28.67
2018-12-04T14:36:44.521Z,41.57
2018-12-04T14:38:48.914Z,52.07
2018-12-04T14:40:53.130Z,38.37
2018-12-04T14:42:57.501Z,37.13
2018-12-04T14:45:01.878Z,27.70
2018-12-04T14:47:06.215Z,28.90
2018-12-04T14:49:10.345Z,25.40
2018-12-04T14:51:14.576Z,17.70
2018-12-04T14:53:18.812Z,13.33
2018-12-04T14:55:23.398Z,16.10
2018-12-04T14:57:27.724Z,15.50
2018-12-04T14:59:31.956Z,14.30
2018-12-04T15:01:36.629Z,13.90
2018-12-04T15:03:40.907Z,14.63
2018-12-04T15:05:45.289Z,15.80
2018-12-04T15:07:49.620Z,14.07
2018-12-04T15:09:55.643Z,11.23
2018-12-04T15:12:00.045Z,6.97
2018-12-04T15:14:04.414Z,13.27
2018-12-04T15:16:09.351Z,11.13
2018-12-04T15:18:16.795Z,11.33
2018-12-04T15:20:21.225Z,16.00
2018-12-04T15:22:25.883Z,12.60
2018-12-04T15:24:30.375Z,12.67
2018-12-04T15:26:36.543Z,12.80
2018-12-04T15:28:42.080Z,16.80
2018-12-04T15:30:50.603Z,24.23
2018-12-04T15:32:55.310Z,14.90
2018-12-04T15:34:59.765Z,28.37
2018-12-04T15:37:04.571Z,21.47
2018-12-04T15:39:14.972Z,21.77
2018-12-04T15:41:19.269Z,17.93
2018-12-04T15:43:30.359Z,26.17
2018-12-04T15:45:34.868Z,14.13
2018-12-04T15:47:39.209Z,13.77
2018-12-04T15:49:43.451Z,10.33
2018-12-04T15:51:47.871Z,12.37
2018-12-04T15:54:00.051Z,15.27
2018-12-04T15:56:04.662Z,15.70
2018-12-04T15:58:09.003Z,13.80
2018-12-04T16:00:13.317Z,12.40
2018-12-04T16:02:17.732Z,22.37
2018-12-04T16:04:22.183Z,14.13
2018-12-04T16:06:26.522Z,24.03
2018-12-04T16:08:31.421Z,31.07
2018-12-04T16:10:35.816Z,27.70
2018-12-04T16:12:40.283Z,19.20
2018-12-04T16:14:44.735Z,24.33
2018-12-04T16:16:50.048Z,30.00
2018-12-04T16:18:54.701Z,27.23
2018-12-04T16:20:58.967Z,20.73
2018-12-04T16:23:03.551Z,21.43
2018-12-04T16:25:09.237Z,23.43
2018-12-04T16:27:13.487Z,18.83
2018-12-04T16:29:17.896Z,24.73
2018-12-04T16:31:22.229Z,18.50
2018-12-04T16:33:26.550Z,21.57
2018-12-04T16:35:30.816Z,29.97
2018-12-04T16:37:34.947Z,20.63
2018-12-04T16:39:39.262Z,23.00
2018-12-04T16:41:43.601Z,35.03
2018-12-04T16:43:47.704Z,36.83
2018-12-04T16:45:52.035Z,28.60
2018-12-04T16:47:56.314Z,25.07
2018-12-04T16:50:00.649Z,31.87
2018-12-04T16:52:05.014Z,27.20
2018-12-04T16:54:09.400Z,35.33
2018-12-04T16:56:13.880Z,39.87
2018-12-04T16:58:18.274Z,28.10
2018-12-04T17:00:22.925Z,27.53
2018-12-04T17:02:28.489Z,26.53
2018-12-04T17:04:33.003Z,29.37
2018-12-04T17:06:37.846Z,38.97
2018-12-04T17:08:42.047Z,38.93
2018-12-04T17:10:46.709Z,38.43
2018-12-04T17:12:51.506Z,44.67
2018-12-04T17:14:55.918Z,42.37
2018-12-04T17:17:00.282Z,56.33
2018-12-04T17:19:04.829Z,41.27
2018-12-04T17:21:09.333Z,43.53
2018-12-04T17:23:13.624Z,31.03
2018-12-04T17:25:18.054Z,29.97
2018-12-04T17:27:22.443Z,25.53
2018-12-04T17:29:26.923Z,20.63
2018-12-04T17:31:31.439Z,27.60
2018-12-04T17:33:36.547Z,32.37
2018-12-04T17:35:40.904Z,25.00
2018-12-04T17:37:45.115Z,31.23
2018-12-04T17:39:49.552Z,26.80
2018-12-04T17:41:53.840Z,34.57
2018-12-04T17:43:58.329Z,21.60
2018-12-04T17:46:02.574Z,25.03
2018-12-04T17:48:07.020Z,27.27
2018-12-04T17:50:11.425Z,23.40
2018-12-04T17:52:15.803Z,27.37
2018-12-04T17:54:20.271Z,28.43
2018-12-04T17:56:24.665Z,18.83
2018-12-04T17:58:28.871Z,20.40
2018-12-04T18:00:33.205Z,24.23
2018-12-04T18:02:37.615Z,24.27
2018-12-04T18:04:42.136Z,19.73
2018-12-04T18:06:46.249Z,27.90
2018-12-04T18:08:50.327Z,28.60
2018-12-04T18:10:55.675Z,22.37
2018-12-04T18:13:00.079Z,19.73
2018-12-04T18:15:04.721Z,27.83
2018-12-04T18:17:09.372Z,20.07
2018-12-04T18:19:14.161Z,24.50
2018-12-04T18:21:18.698Z,17.70
2018-12-04T18:23:23.061Z,15.80
2018-12-04T18:25:27.732Z,24.20
2018-12-04T18:27:33.046Z,25.53
2018-12-04T18:29:37.393Z,27.00
2018-12-04T18:31:42.118Z,24.90
2018-12-04T18:33:46.521Z,22.50
2018-12-04T18:35:50.907Z,17.83
2018-12-04T18:37:55.213Z,22.40
2018-12-04T18:39:59.475Z,23.93
2018-12-04T18:42:03.890Z,22.27
2018-12-04T18:44:08.295Z,21.83
2018-12-04T18:46:13.013Z,18.40
2018-12-04T18:48:17.608Z,19.47
2018-12-04T18:50:22.076Z,22.90
2018-12-04T18:52:26.691Z,23.13
2018-12-04T18:54:31.385Z,20.63
2018-12-04T18:56:35.889Z,27.73
2018-12-04T18:58:40.355Z,18.37
2018-12-04T19:00:44.842Z,30.63
2018-12-04T19:02:49.330Z,31.37
2018-12-04T19:04:53.688Z,30.70
2018-12-04T19:06:58.226Z,30.07
2018-12-04T19:09:02.650Z,27.27
2018-12-04T19:11:07.813Z,20.00
2018-12-04T19:13:12.056Z,32.00
2018-12-04T19:15:16.358Z,29.90
2018-12-04T19:17:20.562Z,35.07
2018-12-04T19:19:25.381Z,28.20
2018-12-04T19:21:29.490Z,27.07
2018-12-04T19:23:33.852Z,27.70
2018-12-04T19:25:38.395Z,29.23
2018-12-04T19:27:42.491Z,26.90
2018-12-04T19:29:46.820Z,21.60
2018-12-04T19:31:50.985Z,27.77
2018-12-04T19:33:56.786Z,22.10
2018-12-04T19:36:01.196Z,24.83
2018-12-04T19:38:05.409Z,21.90
2018-12-04T19:40:12.427Z,23.73
2018-12-04T19:42:16.700Z,27.47
2018-12-04T19:44:21.011Z,20.50
2018-12-04T19:46:25.540Z,30.93
2018-12-04T19:48:29.837Z,26.20
2018-12-04T19:50:36.057Z,31.83
2018-12-04T19:52:40.641Z,40.87
2018-12-04T19:54:45.743Z,32.67
2018-12-04T19:56:54.348Z,43.63
2018-12-04T19:59:00.482Z,55.17
2018-12-04T20:01:05.657Z,61.23
2018-12-04T20:03:10.198Z,69.93
2018-12-04T20:05:14.490Z,62.77
2018-12-04T20:07:19.327Z,57.50
2018-12-04T20:09:23.842Z,45.47
2018-12-04T20:11:28.163Z,41.47
2018-12-04T20:13:32.810Z,34.73
2018-12-04T20:15:38.421Z,26.80
2018-12-04T20:17:42.850Z,22.33
2018-12-04T20:19:48.388Z,26.63
2018-12-04T20:21:52.820Z,23.67
2018-12-04T20:23:57.310Z,22.70
2018-12-04T20:26:01.911Z,23.37
2018-12-04T20:28:06.455Z,18.77
2018-12-04T20:30:10.856Z,22.23
2018-12-04T20:32:15.101Z,20.17
2018-12-04T20:34:19.506Z,29.93
2018-12-04T20:36:23.727Z,32.30
2018-12-04T20:38:28.381Z,26.93
2018-12-04T20:40:32.917Z,23.83
2018-12-04T20:42:37.493Z,25.73
2018-12-04T20:44:42.008Z,25.50
2018-12-04T20:46:46.133Z,21.97
2018-12-04T20:48:50.441Z,23.00
2018-12-04T20:50:55.459Z,22.43
2018-12-04T20:52:59.673Z,25.70
2018-12-04T20:55:08.683Z,17.00
2018-12-04T20:57:10.621Z,22.70
2018-12-04T20:59:14.989Z,16.70
2018-12-04T21:01:19.496Z,18.67
2018-12-04T21:03:23.820Z,15.77
2018-12-04T21:05:28.271Z,22.97
2018-12-04T21:07:32.688Z,18.27
2018-12-04T21:09:37.049Z,20.53
2018-12-04T21:11:42.492Z,14.53
2018-12-04T21:13:46.700Z,22.73
2018-12-04T21:15:51.112Z,17.77
2018-12-04T21:17:55.757Z,19.20
2018-12-04T21:20:00.076Z,15.80
2018-12-04T21:22:04.560Z,14.03
2018-12-04T21:24:08.802Z,26.70
2018-12-04T21:26:13.088Z,18.53
2018-12-04T21:28:23.739Z,23.40
2018-12-04T21:30:33.274Z,21.33
2018-12-04T21:33:41.064Z,20.20
2018-12-04T21:35:50.294Z,18.50
2018-12-04T21:37:59.757Z,30.30
2018-12-04T21:40:09.477Z,22.30
2018-12-04T21:42:18.768Z,22.43
2018-12-04T21:44:28.138Z,24.13
2018-12-04T21:46:37.488Z,17.80
2018-12-04T21:48:41.805Z,16.07
2018-12-04T21:50:46.029Z,17.80
2018-12-04T21:52:50.314Z,21.90
2018-12-04T21:54:54.579Z,22.00
2018-12-04T21:56:58.973Z,24.13
2018-12-04T21:59:03.484Z,27.70
2018-12-04T22:01:07.681Z,30.83
2018-12-04T22:03:11.850Z,31.50
2018-12-04T22:05:16.422Z,24.73
2018-12-04T22:07:20.975Z,29.73
2018-12-04T22:09:25.169Z,22.80
2018-12-04T22:11:29.393Z,22.30
2018-12-04T22:13:33.583Z,25.63
2018-12-04T22:15:37.931Z,22.73
2018-12-04T22:17:42.099Z,24.97
2018-12-04T22:19:46.450Z,22.10
2018-12-04T22:21:51.240Z,31.83
2018-12-04T22:23:55.594Z,25.83
2018-12-04T22:25:59.851Z,20.30
2018-12-04T22:28:04.420Z,29.33
2018-12-04T22:30:09.061Z,24.50
2018-12-04T22:32:14.606Z,25.27
2018-12-04T22:34:18.912Z,20.67
2018-12-04T22:36:23.313Z,25.07
2018-12-04T22:38:27.621Z,18.73
2018-12-04T22:40:32.036Z,22.63
2018-12-04T22:42:36.474Z,23.20
2018-12-04T22:44:40.772Z,28.63
2018-12-04T22:46:45.145Z,27.20
2018-12-04T22:48:49.430Z,22.83
2018-12-04T22:50:53.871Z,29.87
2018-12-04T22:52:58.353Z,38.10
2018-12-04T22:55:02.673Z,21.73
2018-12-04T22:57:07.138Z,32.00
2018-12-04T22:59:11.420Z,23.83
2018-12-04T23:01:25.540Z,27.23
2018-12-04T23:03:29.857Z,38.20
2018-12-04T23:05:34.390Z,29.00
2018-12-04T23:07:38.819Z,23.87
2018-12-04T23:09:43.165Z,26.67
2018-12-04T23:11:48.408Z,33.67
2018-12-04T23:13:52.967Z,21.37
2018-12-04T23:15:57.240Z,24.87
2018-12-04T23:18:01.606Z,20.93
2018-12-04T23:20:06.215Z,33.00
2018-12-04T23:22:10.763Z,26.67
2018-12-04T23:24:15.065Z,26.90
2018-12-04T23:26:19.448Z,25.40
2018-12-04T23:28:23.733Z,27.43
2018-12-04T23:30:28.051Z,22.53
2018-12-04T23:32:32.389Z,21.57
2018-12-04T23:34:36.690Z,18.07
2018-12-04T23:36:41.054Z,23.30
2018-12-04T23:38:45.443Z,20.83
2018-12-04T23:40:49.773Z,23.90
2018-12-04T23:42:54.080Z,17.33
2018-12-04T23:44:58.506Z,23.50
2018-12-04T23:47:02.723Z,25.93
2018-12-04T23:49:06.929Z,20.33
2018-12-04T23:51:11.337Z,18.33
2018-12-04T23:53:15.787Z,27.00
2018-12-04T23:55:20.051Z,21.87
2018-12-04T23:57:24.406Z,24.20
2018-12-04T23:59:28.605Z,27.33
